Pagrindinis puslapis
METAR-TAF:

METAR-TAF

Oro uostai :

Toamasina, Madagaskaras

platuma: 18-07S, ilguma: 049-24E, Aukštis: 5 m

Dabartinis oras

Ataskaita buvo paskelbta 1 valandą ir 11 minutes, ne 20:00 UTC
Vėjas 4 kt iš Vakarų/Pietvakarių
Temperatūra 19°C
Drėgmė 94%
Slėgis 1020 hPa
Matomumas 10 km arba daugiau
Išsisklaidę debesys ne aukštis 1700 ft
Išsisklaidę debesys ne aukštis 3300 ft

METAR: FMMT 222000Z 25004KT 9999 SCT017 SCT033 19/18 Q1020 NOSIG

Laikas: 00:11 (21:11 UTC)

Prognozė

Ataskaita buvo paskelbta 4 valandos ir 11 minutes, ne 17:00 UTC
Prognozė galioja nuo 22 metu 18 UTC su 23 metu 18 UTC
Vėjas 3 kt nuo kintamojo kryptimis
Matomumas 10 km arba daugiau
Mažai debesys ne aukštis 1700 ft, aukštai iškilę kamuoliniai debesys.
Išsisklaidę debesys ne aukštis 3300 ft
Laikinai
nuo 22 metu 22 UTC su 23 metu 15 UTC
Matomumas: 4000 m
lietus
Tapsmas
nuo 23 metu 06 UTC su 23 metu 08 UTC
Vėjas 13 kt iš Pietryčių

TAF: FMMT 221700Z 2218/2318 VRB03KT 9999 FEW017TCU SCT033 TEMPO 2222/2315 4000 SHRA BECMG 2306/2308 14013KT

Orai ataskaitas ir orų prognozės (METAR, TAF).

turimą stotys yra geltonos ir raudonos taškus žemėlapyje.

Perkelti pele per norėdami pamatyti stoties vardą.

Tada spustelėkite, norėdami matyti oro stebėjimo ir prognozės.

Norėdami pakeisti žemėlapį: spustelėkite ant žalios mygtukų su juodo kryžiaus žemyn,; žalią mygtuką su brūkšneliu, jei norite nutolinti; arba žalių rodyklių gretimoms žemėlapius.


METAR-TAF: